createdAt,value
2022-12-18T00:00:08.238Z,89.21
2022-12-18T00:02:41.827Z,89.08
2022-12-18T00:05:10.116Z,88.52
2022-12-18T00:07:38.324Z,88.10
2022-12-18T00:10:06.921Z,88.38
2022-12-18T00:12:34.912Z,87.76
2022-12-18T00:15:02.799Z,88.45
2022-12-18T00:17:30.762Z,88.17
2022-12-18T00:19:58.802Z,88.16
2022-12-18T00:22:26.811Z,88.72
2022-12-18T00:24:54.610Z,88.58
2022-12-18T00:27:22.595Z,88.12
2022-12-18T00:29:50.772Z,87.96
2022-12-18T00:32:18.703Z,87.85
2022-12-18T00:34:46.638Z,87.06
2022-12-18T00:37:19.734Z,86.81
2022-12-18T00:39:52.225Z,86.55
2022-12-18T00:42:40.014Z,86.19
2022-12-18T00:45:12.574Z,86.48
2022-12-18T00:47:41.301Z,86.70
2022-12-18T00:50:10.288Z,86.51
2022-12-18T00:52:38.257Z,85.91
2022-12-18T00:55:09.575Z,85.84
2022-12-18T00:57:37.710Z,85.97
2022-12-18T01:00:07.501Z,86.60
2022-12-18T01:02:36.583Z,86.60
2022-12-18T01:05:05.720Z,86.84
2022-12-18T01:07:35.413Z,86.77
2022-12-18T01:10:07.546Z,86.28
2022-12-18T01:12:36.896Z,86.44
2022-12-18T01:15:06.449Z,86.53
2022-12-18T01:17:35.136Z,85.60
2022-12-18T01:20:05.475Z,85.52
2022-12-18T01:22:34.233Z,85.67
2022-12-18T01:25:02.653Z,85.11
2022-12-18T01:27:31.093Z,85.58
2022-12-18T01:29:58.927Z,85.03
2022-12-18T01:32:30.325Z,85.78
2022-12-18T01:34:58.438Z,85.39
2022-12-18T01:37:28.638Z,85.36
2022-12-18T01:39:56.737Z,84.88
2022-12-18T01:42:24.873Z,85.33
2022-12-18T01:45:06.313Z,85.06
2022-12-18T01:47:45.761Z,84.95
2022-12-18T01:50:19.638Z,84.93
2022-12-18T01:52:55.141Z,84.54
2022-12-18T01:55:26.408Z,84.96
2022-12-18T01:57:57.759Z,84.60
2022-12-18T02:00:29.183Z,84.14
2022-12-18T02:02:57.418Z,84.42
2022-12-18T02:05:56.842Z,83.87
2022-12-18T02:08:38.924Z,83.29
2022-12-18T02:11:30.295Z,84.47
2022-12-18T02:14:38.799Z,83.87
2022-12-18T02:17:19.335Z,83.22
2022-12-18T02:20:02.874Z,83.50
2022-12-18T02:22:32.111Z,83.28
2022-12-18T02:25:22.599Z,84.08
2022-12-18T02:27:52.730Z,83.86
2022-12-18T02:30:23.071Z,83.80
2022-12-18T02:32:54.492Z,84.05
2022-12-18T02:35:26.184Z,85.03
2022-12-18T02:37:56.873Z,83.72
2022-12-18T02:40:28.763Z,83.39
2022-12-18T02:43:14.855Z,83.62
2022-12-18T02:45:53.932Z,82.78
2022-12-18T02:48:27.186Z,83.75
2022-12-18T02:51:09.824Z,82.72
2022-12-18T02:53:40.973Z,82.63
2022-12-18T02:56:16.944Z,82.89
2022-12-18T03:00:42.753Z,83.07
2022-12-18T03:03:31.328Z,82.98
2022-12-18T03:06:05.656Z,82.71
2022-12-18T03:08:39.796Z,82.44
2022-12-18T03:11:13.900Z,81.57
2022-12-18T03:13:48.895Z,82.22
2022-12-18T03:16:26.791Z,82.20
2022-12-18T03:19:05.348Z,82.00
2022-12-18T03:21:39.618Z,82.67
2022-12-18T03:24:10.687Z,82.08
2022-12-18T03:26:44.020Z,82.71
2022-12-18T03:29:27.893Z,83.29
2022-12-18T03:32:16.974Z,82.53
2022-12-18T03:34:48.847Z,81.77
2022-12-18T03:37:18.223Z,82.25
2022-12-18T03:39:47.514Z,81.95
2022-12-18T03:42:33.827Z,82.27
2022-12-18T03:51:12.370Z,82.01
2022-12-18T03:53:40.616Z,81.95
2022-12-18T03:56:10.446Z,82.55
2022-12-18T03:58:44.925Z,82.69
2022-12-18T04:01:21.329Z,81.77
2022-12-18T04:03:51.309Z,82.67
2022-12-18T04:06:22.397Z,83.22
2022-12-18T04:08:50.540Z,82.80
2022-12-18T04:11:22.391Z,82.50
2022-12-18T04:13:50.480Z,82.77
2022-12-18T04:16:26.161Z,83.27
2022-12-18T04:18:57.297Z,81.61
2022-12-18T04:21:27.408Z,82.32
2022-12-18T04:23:55.564Z,82.07
2022-12-18T04:26:24.643Z,83.22
2022-12-18T04:29:15.868Z,83.62
2022-12-18T04:31:43.942Z,83.59
2022-12-18T04:34:12.733Z,84.39
2022-12-18T04:36:49.194Z,83.87
2022-12-18T04:39:17.865Z,84.26
2022-12-18T04:41:46.510Z,84.91
2022-12-18T04:44:15.593Z,84.65
2022-12-18T04:46:44.973Z,84.11
2022-12-18T04:49:13.610Z,84.06
2022-12-18T04:51:44.042Z,83.30
2022-12-18T04:54:12.021Z,83.46
2022-12-18T04:56:40.977Z,83.73
2022-12-18T04:59:08.834Z,82.97
2022-12-18T05:01:37.009Z,83.42
2022-12-18T05:04:05.239Z,82.93
2022-12-18T05:06:33.161Z,83.14
2022-12-18T05:09:01.471Z,82.64
2022-12-18T05:11:29.359Z,83.29
2022-12-18T05:13:57.234Z,82.81
2022-12-18T05:16:25.148Z,82.60
2022-12-18T05:18:53.284Z,82.40
2022-12-18T05:21:21.376Z,82.63
2022-12-18T05:23:49.273Z,82.10
2022-12-18T05:26:18.988Z,81.73
2022-12-18T05:28:47.240Z,82.25
2022-12-18T05:31:15.945Z,82.03
2022-12-18T05:33:44.247Z,81.32
2022-12-18T05:36:12.934Z,81.65
2022-12-18T05:38:41.229Z,81.22
2022-12-18T05:41:10.512Z,81.63
2022-12-18T05:43:40.702Z,81.45
2022-12-18T05:46:13.521Z,81.95
2022-12-18T05:48:42.736Z,81.83
2022-12-18T05:51:17.036Z,81.59
2022-12-18T05:53:45.356Z,82.33
2022-12-18T05:56:21.261Z,81.77
2022-12-18T05:58:54.173Z,81.27
2022-12-18T06:01:26.146Z,81.21
2022-12-18T06:03:54.250Z,82.30
2022-12-18T06:06:27.772Z,81.10
2022-12-18T06:08:56.801Z,81.15
2022-12-18T06:11:27.623Z,80.78
2022-12-18T06:13:59.160Z,80.64
2022-12-18T06:16:31.152Z,80.54
2022-12-18T06:19:01.007Z,80.39
2022-12-18T06:21:44.464Z,79.93
2022-12-18T06:24:12.556Z,80.69
2022-12-18T06:26:40.710Z,80.91
2022-12-18T06:29:08.740Z,80.16
2022-12-18T06:31:36.872Z,80.14
2022-12-18T06:34:05.570Z,80.00
2022-12-18T06:36:33.642Z,80.07
2022-12-18T06:39:01.716Z,78.01
2022-12-18T06:41:29.855Z,78.29
2022-12-18T06:44:00.108Z,79.28
2022-12-18T06:46:28.460Z,78.50
2022-12-18T06:48:56.333Z,78.83
2022-12-18T06:51:25.348Z,78.00
2022-12-18T06:53:53.348Z,78.20
2022-12-18T06:56:21.643Z,78.29
2022-12-18T06:58:50.252Z,77.58
2022-12-18T07:01:18.494Z,77.57
2022-12-18T07:03:46.828Z,77.80
2022-12-18T07:06:17.111Z,77.77
2022-12-18T07:08:46.648Z,77.73
2022-12-18T07:11:15.106Z,77.34
2022-12-18T07:13:43.484Z,77.48
2022-12-18T07:16:22.573Z,78.31
2022-12-18T07:18:55.361Z,77.06
2022-12-18T07:21:25.217Z,77.18
2022-12-18T07:23:53.303Z,77.20
2022-12-18T07:26:22.700Z,77.49
2022-12-18T07:28:51.169Z,76.76
2022-12-18T07:31:22.262Z,77.66
2022-12-18T07:33:51.629Z,77.18
2022-12-18T07:36:20.399Z,76.53
2022-12-18T07:38:53.612Z,76.64
2022-12-18T07:41:21.881Z,75.95
2022-12-18T07:43:49.962Z,75.19
2022-12-18T07:46:19.599Z,74.65
2022-12-18T07:48:49.765Z,74.40
2022-12-18T07:51:19.729Z,75.02
2022-12-18T07:53:49.345Z,75.63
2022-12-18T07:56:30.560Z,74.44
2022-12-18T07:59:00.861Z,74.70
2022-12-18T08:01:29.024Z,73.65
2022-12-18T08:03:58.389Z,73.21
2022-12-18T08:06:27.002Z,72.31
2022-12-18T08:08:59.635Z,71.98
2022-12-18T08:11:29.506Z,71.85
2022-12-18T08:13:58.737Z,71.10
2022-12-18T08:16:26.838Z,72.53
2022-12-18T08:18:55.942Z,72.98
2022-12-18T08:21:29.702Z,71.93
2022-12-18T08:24:00.855Z,73.13
2022-12-18T08:26:31.733Z,72.80
2022-12-18T08:29:01.802Z,73.22
2022-12-18T08:31:32.042Z,73.96
2022-12-18T08:34:00.638Z,73.90
2022-12-18T08:36:29.198Z,73.10
2022-12-18T08:38:58.030Z,74.37
2022-12-18T08:41:26.981Z,74.22
2022-12-18T08:44:14.127Z,74.71
2022-12-18T08:46:44.772Z,74.62
2022-12-18T08:49:13.372Z,74.74
2022-12-18T08:51:41.842Z,74.34
2022-12-18T08:54:14.481Z,74.16
2022-12-18T08:56:42.492Z,73.30
2022-12-18T08:59:17.333Z,74.04
2022-12-18T09:01:48.281Z,73.87
2022-12-18T09:04:16.351Z,74.06
2022-12-18T09:06:44.707Z,75.33
2022-12-18T09:09:13.720Z,74.64
2022-12-18T09:11:42.130Z,74.36
2022-12-18T09:14:11.332Z,74.69
2022-12-18T09:16:39.819Z,73.95
2022-12-18T09:19:08.530Z,74.58
2022-12-18T09:21:47.777Z,74.53
2022-12-18T09:24:16.979Z,74.34
2022-12-18T09:26:47.083Z,75.06
2022-12-18T09:29:18.837Z,74.75
2022-12-18T09:31:48.246Z,74.97
2022-12-18T09:34:17.947Z,76.02
2022-12-18T09:36:46.455Z,75.13
2022-12-18T09:39:16.322Z,75.61
2022-12-18T09:41:55.094Z,75.71
2022-12-18T09:44:31.670Z,74.76
2022-12-18T09:47:24.801Z,75.61
2022-12-18T09:50:01.425Z,75.33
2022-12-18T10:01:13.367Z,74.87
2022-12-18T10:03:41.952Z,75.32
2022-12-18T10:06:20.368Z,75.37
2022-12-18T10:08:53.285Z,74.83
2022-12-18T10:11:49.351Z,73.98
2022-12-18T10:14:45.476Z,74.68
2022-12-18T10:17:42.292Z,73.99
2022-12-18T10:20:29.338Z,73.18
2022-12-18T10:23:15.871Z,73.24
2022-12-18T10:26:02.038Z,72.69
2022-12-18T10:28:32.758Z,73.43
2022-12-18T10:31:01.322Z,73.36
2022-12-18T10:33:32.832Z,73.50
2022-12-18T10:36:01.561Z,74.08
2022-12-18T10:38:31.877Z,74.69
2022-12-18T10:41:01.601Z,74.93
2022-12-18T10:43:37.844Z,74.53
2022-12-18T10:46:08.656Z,73.98
2022-12-18T10:48:48.698Z,73.81
2022-12-18T10:51:29.570Z,73.41
2022-12-18T10:54:13.725Z,73.88
2022-12-18T10:56:42.562Z,73.66
2022-12-18T10:59:14.956Z,74.03
2022-12-18T11:01:59.502Z,74.22
2022-12-18T11:04:30.362Z,73.52
2022-12-18T11:07:10.092Z,72.73
2022-12-18T11:09:40.932Z,71.46
2022-12-18T11:12:11.786Z,72.45
2022-12-18T11:14:46.744Z,71.97
2022-12-18T11:17:42.803Z,72.02
2022-12-18T11:20:40.327Z,72.51
2022-12-18T11:23:14.605Z,71.79
2022-12-18T11:25:57.017Z,70.44
2022-12-18T11:28:33.062Z,71.76
2022-12-18T11:31:25.796Z,71.73
2022-12-18T11:34:28.142Z,72.54
2022-12-18T11:36:54.428Z,72.39
2022-12-18T11:39:56.561Z,72.19
2022-12-18T11:42:47.161Z,71.72
2022-12-18T11:45:15.986Z,71.49
2022-12-18T11:47:55.925Z,72.08
2022-12-18T11:50:39.318Z,70.25
2022-12-18T11:53:12.575Z,69.85
2022-12-18T11:56:27.618Z,67.88
2022-12-18T11:59:11.513Z,68.45
2022-12-18T12:02:15.379Z,68.34
2022-12-18T12:05:12.103Z,67.89
2022-12-18T12:08:14.468Z,67.15
2022-12-18T12:11:03.728Z,67.09
2022-12-18T12:13:44.360Z,67.45
2022-12-18T12:16:23.851Z,67.30
2022-12-18T12:19:15.536Z,67.02
2022-12-18T12:21:53.089Z,66.93
2022-12-18T12:24:46.079Z,66.59
2022-12-18T12:27:20.623Z,67.41
2022-12-18T12:30:27.300Z,67.04
2022-12-18T12:33:11.037Z,67.46
2022-12-18T12:36:09.764Z,66.92
2022-12-18T12:38:53.790Z,66.28
2022-12-18T12:41:46.056Z,66.88
2022-12-18T12:44:23.548Z,66.50
2022-12-18T12:46:56.393Z,67.01
2022-12-18T12:49:30.726Z,66.57
2022-12-18T12:52:13.828Z,67.54
2022-12-18T12:54:43.275Z,67.58
2022-12-18T12:57:24.800Z,68.43
2022-12-18T13:00:09.388Z,69.33
2022-12-18T13:02:55.639Z,69.08
2022-12-18T13:05:31.319Z,69.20
2022-12-18T13:08:09.223Z,68.44
2022-12-18T13:10:43.482Z,68.81
2022-12-18T13:13:23.333Z,68.22
2022-12-18T13:16:08.123Z,68.76
2022-12-18T13:18:40.402Z,68.80
2022-12-18T13:21:35.881Z,69.46
2022-12-18T13:24:24.816Z,70.06
2022-12-18T13:26:53.383Z,69.84
2022-12-18T13:29:47.406Z,69.89
2022-12-18T13:32:27.590Z,69.34
2022-12-18T13:35:21.054Z,69.57
2022-12-18T13:37:55.524Z,71.02
2022-12-18T13:40:51.632Z,70.42
2022-12-18T13:43:20.642Z,69.54
2022-12-18T13:46:14.752Z,69.13
2022-12-18T13:48:56.394Z,69.30
2022-12-18T13:51:26.168Z,69.10
2022-12-18T13:54:04.459Z,70.00
2022-12-18T13:56:35.543Z,69.98
2022-12-18T13:59:18.583Z,69.10
2022-12-18T14:02:02.297Z,69.43
2022-12-18T14:04:35.861Z,68.75
2022-12-18T14:07:07.273Z,69.65
2022-12-18T14:09:41.561Z,69.96
2022-12-18T14:12:49.647Z,71.60
2022-12-18T14:15:31.697Z,70.54
2022-12-18T14:18:14.287Z,69.98
2022-12-18T14:20:50.664Z,70.00
2022-12-18T14:23:39.444Z,69.79
2022-12-18T14:26:40.263Z,69.82
2022-12-18T14:29:29.647Z,69.18
2022-12-18T14:32:18.889Z,69.09
2022-12-18T14:34:47.672Z,69.24
2022-12-18T14:37:19.289Z,69.88
2022-12-18T14:39:59.356Z,69.29
2022-12-18T14:42:31.249Z,69.20
2022-12-18T14:45:41.607Z,69.16
2022-12-18T14:48:23.092Z,69.94
2022-12-18T14:51:04.055Z,70.13
2022-12-18T14:53:35.272Z,69.70
2022-12-18T14:56:13.583Z,70.27
2022-12-18T14:58:47.961Z,68.39
2022-12-18T15:01:41.081Z,69.76
2022-12-18T15:04:29.700Z,69.83
2022-12-18T15:07:25.467Z,69.38
2022-12-18T15:10:14.734Z,69.09
2022-12-18T15:12:45.973Z,69.43
2022-12-18T15:15:39.326Z,69.47
2022-12-18T15:18:13.656Z,70.59
2022-12-18T15:21:00.494Z,70.78
2022-12-18T15:23:53.699Z,70.33
2022-12-18T15:26:23.618Z,70.66
2022-12-18T15:28:53.194Z,70.68
2022-12-18T15:31:33.157Z,71.10
2022-12-18T15:34:21.962Z,70.24
2022-12-18T15:36:52.872Z,70.23
2022-12-18T15:39:21.447Z,69.96
2022-12-18T15:42:08.926Z,70.05
2022-12-18T15:44:38.670Z,69.92
2022-12-18T15:47:13.856Z,69.90
2022-12-18T15:49:42.437Z,70.33
2022-12-18T15:52:26.187Z,69.87
2022-12-18T16:00:41.096Z,68.58
2022-12-18T16:03:11.190Z,68.81
2022-12-18T16:05:39.859Z,68.92
2022-12-18T16:08:08.279Z,67.15
2022-12-18T16:10:36.417Z,68.23
2022-12-18T16:13:04.772Z,68.15
2022-12-18T16:15:33.101Z,68.89
2022-12-18T16:18:01.874Z,68.69
2022-12-18T16:20:30.251Z,67.10
2022-12-18T16:22:59.157Z,66.73
2022-12-18T16:25:29.233Z,66.96
2022-12-18T16:27:58.359Z,66.70
2022-12-18T16:30:33.672Z,66.52
2022-12-18T16:33:07.698Z,65.76
2022-12-18T16:35:38.455Z,64.25
2022-12-18T16:38:07.060Z,64.47
2022-12-18T16:40:55.307Z,65.18
2022-12-18T16:43:23.365Z,65.33
2022-12-18T16:45:51.605Z,64.78
2022-12-18T16:48:20.350Z,64.04
2022-12-18T16:50:48.327Z,64.45
2022-12-18T16:53:16.344Z,63.91
2022-12-18T16:55:45.134Z,65.02
2022-12-18T16:58:13.083Z,66.47
2022-12-18T17:00:41.447Z,64.43
2022-12-18T17:03:10.065Z,63.69
2022-12-18T17:05:38.691Z,63.48
2022-12-18T17:08:07.481Z,63.92
2022-12-18T17:10:36.771Z,63.37
2022-12-18T17:13:05.688Z,63.55
2022-12-18T17:15:37.755Z,64.23
2022-12-18T17:18:06.526Z,63.96
2022-12-18T17:20:35.363Z,63.84
2022-12-18T17:23:03.817Z,63.26
2022-12-18T17:25:32.295Z,64.11
2022-12-18T17:28:01.259Z,63.93
2022-12-18T17:30:30.428Z,62.33
2022-12-18T17:32:58.546Z,62.64
2022-12-18T17:35:26.745Z,63.69
2022-12-18T17:37:55.097Z,64.38
2022-12-18T17:40:24.401Z,63.48
2022-12-18T17:42:54.140Z,63.94
2022-12-18T17:45:23.221Z,64.58
2022-12-18T17:47:56.765Z,63.97
2022-12-18T17:50:28.310Z,62.77
2022-12-18T17:52:57.672Z,64.47
2022-12-18T17:55:26.748Z,63.78
2022-12-18T17:57:55.352Z,64.78
2022-12-18T18:00:23.794Z,64.76
2022-12-18T18:02:52.868Z,64.21
2022-12-18T18:05:21.358Z,63.92
2022-12-18T18:07:50.430Z,63.42
2022-12-18T18:10:20.897Z,63.99
2022-12-18T18:13:07.218Z,63.75
2022-12-18T18:15:36.052Z,63.51
2022-12-18T18:18:06.313Z,63.52
2022-12-18T18:20:39.521Z,64.19
2022-12-18T18:23:07.730Z,63.58
2022-12-18T18:25:38.609Z,62.58
2022-12-18T18:28:07.112Z,63.28
2022-12-18T18:30:37.062Z,63.08
2022-12-18T18:33:10.338Z,62.24
2022-12-18T18:35:59.112Z,62.65
2022-12-18T18:38:29.571Z,62.88
2022-12-18T18:41:02.980Z,62.19
2022-12-18T18:43:31.309Z,62.19
2022-12-18T18:46:01.124Z,62.34
2022-12-18T18:48:33.784Z,62.22
2022-12-18T18:51:11.250Z,62.75
2022-12-18T18:53:44.410Z,62.18
2022-12-18T18:56:45.490Z,61.50
2022-12-18T18:59:03.685Z,61.31
2022-12-18T19:01:32.029Z,62.45
2022-12-18T19:04:03.074Z,62.70
2022-12-18T19:06:31.532Z,61.88
2022-12-18T19:09:03.624Z,63.58
2022-12-18T19:11:51.838Z,63.25
2022-12-18T19:14:23.349Z,62.37
2022-12-18T19:16:52.192Z,62.36
2022-12-18T19:19:21.422Z,62.21
2022-12-18T19:21:50.601Z,62.54
2022-12-18T19:24:22.619Z,62.84
2022-12-18T19:26:52.617Z,61.35
2022-12-18T19:29:25.113Z,61.50
2022-12-18T19:31:53.535Z,60.80
2022-12-18T19:34:22.332Z,61.17
2022-12-18T19:36:56.539Z,60.81
2022-12-18T19:39:28.266Z,61.35
2022-12-18T19:41:56.704Z,61.58
2022-12-18T19:44:25.325Z,61.50
2022-12-18T19:46:53.882Z,61.90
2022-12-18T19:49:22.608Z,62.14
2022-12-18T19:51:51.158Z,62.03
2022-12-18T19:54:19.564Z,62.14
2022-12-18T19:56:48.177Z,61.92
2022-12-18T19:59:16.691Z,62.67
2022-12-18T20:01:45.201Z,63.01
2022-12-18T20:04:13.797Z,63.15
2022-12-18T20:06:53.983Z,63.29
2022-12-18T20:09:22.638Z,63.34
2022-12-18T20:11:51.238Z,63.21
2022-12-18T20:14:23.400Z,63.41
2022-12-18T20:16:53.504Z,63.45
2022-12-18T20:19:22.681Z,64.68
2022-12-18T20:21:51.552Z,63.84
2022-12-18T20:24:19.710Z,64.30
2022-12-18T20:26:48.059Z,64.10
2022-12-18T20:29:16.354Z,65.03
2022-12-18T20:31:45.080Z,64.37
2022-12-18T20:34:13.590Z,64.34
2022-12-18T20:36:42.129Z,64.65
2022-12-18T20:39:12.216Z,64.25
2022-12-18T20:41:41.460Z,65.27
2022-12-18T20:44:22.334Z,65.60
2022-12-18T20:47:00.783Z,66.02
2022-12-18T20:49:33.441Z,65.69
2022-12-18T20:52:03.604Z,65.95
2022-12-18T20:54:32.244Z,66.63
2022-12-18T20:57:00.292Z,67.25
2022-12-18T20:59:28.510Z,66.83
2022-12-18T21:01:56.504Z,66.96
2022-12-18T21:04:25.320Z,66.50
2022-12-18T21:06:59.274Z,66.90
2022-12-18T21:09:37.410Z,67.07
2022-12-18T21:12:34.892Z,67.28
2022-12-18T21:15:11.667Z,67.25
2022-12-18T21:17:44.398Z,67.35
2022-12-18T21:20:17.610Z,67.46
2022-12-18T21:22:47.272Z,67.15
2022-12-18T21:25:15.291Z,66.20
2022-12-18T21:27:43.372Z,66.86
2022-12-18T21:30:15.308Z,67.73
2022-12-18T21:32:43.662Z,68.00
2022-12-18T21:35:12.103Z,68.58
2022-12-18T21:37:39.997Z,68.47
2022-12-18T21:40:08.750Z,68.44
2022-12-18T21:42:55.285Z,68.25
2022-12-18T21:45:23.328Z,68.41
2022-12-18T21:47:51.802Z,67.40
2022-12-18T21:50:19.755Z,68.13
2022-12-18T21:52:47.671Z,67.18
2022-12-18T21:55:21.988Z,68.16
2022-12-18T21:58:00.360Z,68.15
2022-12-18T22:06:06.721Z,68.52
2022-12-18T22:08:42.066Z,68.18
2022-12-18T22:11:13.504Z,68.07
2022-12-18T22:13:41.651Z,68.53
2022-12-18T22:16:09.899Z,67.49
2022-12-18T22:18:37.796Z,68.42
2022-12-18T22:21:06.351Z,67.93
2022-12-18T22:23:34.485Z,67.48
2022-12-18T22:26:03.723Z,67.10
2022-12-18T22:28:50.007Z,67.30
2022-12-18T22:31:17.902Z,68.36
2022-12-18T22:33:46.028Z,68.34
2022-12-18T22:36:14.632Z,68.84
2022-12-18T22:38:46.748Z,69.06
2022-12-18T22:41:14.662Z,69.30
2022-12-18T22:43:42.509Z,69.45
2022-12-18T22:46:18.056Z,69.19
2022-12-18T22:48:50.486Z,69.05
2022-12-18T22:51:19.908Z,69.22
2022-12-18T22:53:48.077Z,70.22
2022-12-18T22:56:21.080Z,69.88
2022-12-18T22:58:50.598Z,69.25
2022-12-18T23:01:24.692Z,69.01
2022-12-18T23:03:53.733Z,70.06
2022-12-18T23:06:23.107Z,70.09
2022-12-18T23:08:56.093Z,69.72
2022-12-18T23:11:25.796Z,69.69
2022-12-18T23:13:54.272Z,70.48
2022-12-18T23:16:25.885Z,70.10
2022-12-18T23:18:55.397Z,69.59
2022-12-18T23:21:23.810Z,69.50
2022-12-18T23:23:52.170Z,69.27
2022-12-18T23:26:23.000Z,68.97
2022-12-18T23:28:52.586Z,68.54
2022-12-18T23:31:29.696Z,67.62
2022-12-18T23:33:59.804Z,67.63
2022-12-18T23:36:28.761Z,69.23
2022-12-18T23:39:00.868Z,67.79
2022-12-18T23:41:30.841Z,68.59
2022-12-18T23:44:00.166Z,68.48
2022-12-18T23:46:33.524Z,68.60
2022-12-18T23:49:03.324Z,68.95
2022-12-18T23:51:33.802Z,68.26
2022-12-18T23:54:06.330Z,68.38
2022-12-18T23:56:35.925Z,68.82
2022-12-18T23:59:03.797Z,68.33
